Impacts TAF Board
For situational awareness. Not to be used for flight planning purposes.
IDs:

KSLC - Salt Lake City Intl, UT, US

Issued at 0537 UTC 23 Feb 2019
Updated at 0726 UTC 23 Feb 2019
Potential Impact None Slight Moderate High
Time0654Z 23/08Z 23/09Z 23/10Z 23/11Z 23/12Z 23/13Z 23/14Z 23/15Z 23/16Z 23/17Z 23/18Z 23/19Z 23/20Z>>
Type OBS PRVL PRVL PRVL PRVL PRVL PRVL PRVL PRVL PRVL PRVL PRVL PRVL PRVL
VIS 10 >6 >6 >6 >6 >6 >6 >6 >6 >6 >6 >6 >6 >6
CIG -- -- -- -- -- -- -- -- -- -- -- -- 100 100
Cover CLR FEW FEW FEW FEW FEW FEW FEW FEW FEW FEW FEW BKN BKN
FltCat VFR VFR VFR VFR VFR VFR VFR VFR VFR VFR VFR VFR VFR VFR
WX -- -- -- -- -- -- -- -- -- -- -- -- -- --
WDir 170 150 150 150 150 150 150 150 150 150 150 150 170 170
WSpd 5 5 5 5 5 5 5 5 5 5 5 5 10 10
WGst -- -- -- -- -- -- -- -- -- -- -- -- 18 18
Raw TAF
KSLC 230537Z 2306/2412 15005KT P6SM FEW180
  FM231900 17010G18KT P6SM SCT080 BKN100
  FM240200 16009KT P6SM BKN080


Raw METAR
KSLC 230654Z 17005KT 10SM CLR M06/M11 A3008 RMK AO2 SLP211 T10561106 400001067
KSLC 230554Z 15004KT 10SM CLR M04/M10 A3008 RMK AO2 SLP209 T10441100 11006 21050 51010
KSLC 230454Z 00000KT 10SM FEW180 M04/M09 A3008 RMK AO2 SLP206 T10441089

METAR Board
Radar Display
Forecast Discussion
For situational awareness. Not to be used for flight planning purposes.